createdAt,value
2022-09-03T00:04:19.183Z,3.173
2022-09-03T00:20:01.341Z,3.174
2022-09-03T00:51:25.764Z,3.174
2022-09-03T01:07:07.760Z,3.174
2022-09-03T01:22:50.446Z,3.173
2022-09-03T01:38:33.139Z,3.173
2022-09-03T01:54:15.107Z,3.173
2022-09-03T02:09:57.784Z,3.174
2022-09-03T02:25:40.378Z,3.174
2022-09-03T02:41:23.288Z,3.173
2022-09-03T02:57:05.365Z,3.174
2022-09-03T03:12:48.244Z,3.173
2022-09-03T03:28:30.572Z,3.173
2022-09-03T03:44:12.754Z,3.173
2022-09-03T03:59:54.819Z,3.174
2022-09-03T04:31:19.518Z,3.174
2022-09-03T04:47:01.740Z,3.173
2022-09-03T05:18:27.309Z,3.173
2022-09-03T05:34:09.726Z,3.173
2022-09-03T05:34:56.949Z,3.17
2022-09-03T05:50:46.350Z,3.171
2022-09-03T06:06:29.034Z,3.173
2022-09-03T06:37:46.497Z,3.173
2022-09-03T06:53:29.254Z,3.173
2022-09-03T07:09:11.539Z,3.173
2022-09-03T07:24:53.884Z,3.171
2022-09-03T07:40:36.301Z,3.174
2022-09-03T07:56:18.563Z,3.173
2022-09-03T08:12:00.818Z,3.173
2022-09-03T08:27:43.435Z,3.174
2022-09-03T09:46:29.517Z,3.171
2022-09-03T10:01:57.929Z,3.171
2022-09-03T10:17:40.291Z,3.171
2022-09-03T10:33:30.100Z,3.171
2022-09-03T10:49:05.782Z,3.178
2022-09-03T11:04:48.260Z,3.191
2022-09-03T11:20:30.240Z,3.21
2022-09-03T11:36:12.543Z,3.205
2022-09-03T11:51:54.729Z,3.21
2022-09-03T12:07:37.529Z,3.207
2022-09-03T12:23:20.017Z,3.217
2022-09-03T12:39:02.947Z,3.205
2022-09-03T12:54:45.361Z,3.202
2022-09-03T13:10:27.642Z,3.203
2022-09-03T13:26:10.200Z,3.203
2022-09-03T13:41:52.374Z,3.203
2022-09-03T13:57:35.145Z,3.202
2022-09-03T14:13:17.737Z,3.2
2022-09-03T14:29:00.518Z,3.2
2022-09-03T14:44:42.849Z,3.198
2022-09-03T15:00:25.501Z,3.199
2022-09-03T15:16:07.975Z,3.198
2022-09-03T15:31:50.207Z,3.196
2022-09-03T15:47:33.130Z,3.195
2022-09-03T16:03:15.518Z,3.195
2022-09-03T16:18:57.938Z,3.194
2022-09-03T16:34:40.120Z,3.192
2022-09-03T16:50:22.124Z,3.194
2022-09-03T17:21:46.300Z,3.191
2022-09-03T17:37:29.138Z,3.189
2022-09-03T18:08:54.197Z,3.191
2022-09-03T19:43:09.046Z,3.188
2022-09-03T19:58:51.060Z,3.187
2022-09-03T20:14:33.620Z,3.187
2022-09-03T20:30:16.234Z,3.185
2022-09-03T20:45:58.290Z,3.185
2022-09-03T21:01:40.358Z,3.185
2022-09-03T21:17:23.135Z,3.185
2022-09-03T21:33:06.055Z,3.185
2022-09-03T21:48:48.332Z,3.185
2022-09-03T22:04:30.533Z,3.185
2022-09-03T22:20:12.569Z,3.184
2022-09-03T22:35:55.498Z,3.185
2022-09-03T22:51:38.095Z,3.185
2022-09-03T23:07:20.181Z,3.184
2022-09-03T23:23:02.546Z,3.185
